Time;durP1;ratioP1;P1;durP2;ratioP2;P2;SDS_P1;SDS_P2;PMS_P1;PMS_P2;Temp;Humidity;BMP_temperature;BMP_pressure;BME280_temperature;BME280_humidity;BME280_pressure;Samples;Min_cycle;Max_cycle;Signal;HPM_P1;HPM_P2
2022/06/27 00:00:10;;;;;;;13.43;7.65;;;563.60;2432.00;;;;;;5013319;28;20486;-85
2022/06/27 00:02:37;;;;;;;14.18;8.30;;;563.60;2432.00;;;;;;5013516;28;20475;-85
2022/06/27 00:05:04;;;;;;;11.13;7.32;;;563.50;2432.00;;;;;;5013858;28;20029;-85
2022/06/27 00:07:30;;;;;;;9.43;7.78;;;563.90;2432.00;;;;;;5013346;28;20026;-84
2022/06/27 00:09:56;;;;;;;11.05;8.13;;;563.60;2432.00;;;;;;5013436;28;20026;-85
2022/06/27 00:12:22;;;;;;;12.02;7.72;;;563.50;2432.00;;;;;;5013337;28;20026;-84
2022/06/27 00:14:49;;;;;;;10.82;8.27;;;563.20;2432.00;;;;;;5013682;28;20053;-84
2022/06/27 00:17:15;;;;;;;9.73;7.78;;;563.40;2432.00;;;;;;5013831;28;20032;-86
2022/06/27 00:19:40;;;;;;;15.40;9.52;;;563.30;2432.00;;;;;;5013369;28;20026;-85
2022/06/27 00:22:06;;;;;;;12.35;8.80;;;563.30;2432.00;;;;;;5013499;28;20030;-86
2022/06/27 00:24:32;;;;;;;12.30;8.88;;;563.30;2432.00;;;;;;5013380;28;20153;-84
2022/06/27 00:26:58;;;;;;;12.40;9.27;;;563.30;2432.00;;;;;;5013370;28;20029;-85
2022/06/27 00:29:24;;;;;;;13.43;8.35;;;563.20;2432.00;;;;;;5014949;28;20026;-86
2022/06/27 00:31:50;;;;;;;11.15;8.98;;;563.20;2432.00;;;;;;5014142;28;20030;-84
2022/06/27 00:34:16;;;;;;;10.23;7.97;;;563.20;2432.00;;;;;;5013165;28;20118;-85
2022/06/27 00:36:42;;;;;;;15.40;8.68;;;538.50;2406.40;;;;;;5013828;28;20057;-84
2022/06/27 00:39:08;;;;;;;12.50;8.43;;;538.10;2406.40;;;;;;5013570;28;20029;-85
2022/06/27 00:41:34;;;;;;;13.20;8.88;;;538.50;2406.40;;;;;;5013233;28;20053;-86
2022/06/27 00:44:01;;;;;;;16.65;8.40;;;538.50;2406.40;;;;;;5013275;28;20042;-84
2022/06/27 00:46:27;;;;;;;12.60;8.15;;;538.40;2406.40;;;;;;5013233;28;20038;-84
2022/06/27 00:48:53;;;;;;;12.93;8.55;;;538.40;2406.40;;;;;;5013629;28;20052;-84
2022/06/27 00:51:19;;;;;;;13.63;8.05;;;538.40;2406.40;;;;;;5014579;28;20091;-83
2022/06/27 00:53:45;;;;;;;12.88;8.85;;;538.40;2406.40;;;;;;5014218;28;20080;-83
2022/06/27 00:56:11;;;;;;;13.27;8.45;;;538.50;2406.40;;;;;;5012833;28;20079;-85
2022/06/27 00:58:37;;;;;;;13.55;7.75;;;538.40;2406.40;;;;;;5012518;28;20022;-83
2022/06/27 01:01:03;;;;;;;16.02;8.75;;;538.50;2406.40;;;;;;5012968;28;20213;-84
2022/06/27 01:03:30;;;;;;;11.63;8.85;;;538.40;2406.40;;;;;;5012431;28;20240;-85
2022/06/27 01:05:56;;;;;;;14.50;8.35;;;538.30;2406.40;;;;;;5013248;28;20030;-86
2022/06/27 01:08:25;;;;;;;10.00;7.95;;;538.20;2406.40;;;;;;5012597;28;20030;-86
2022/06/27 01:10:52;;;;;;;16.75;8.68;;;538.30;2406.40;;;;;;5012972;28;20125;-86
2022/06/27 01:13:18;;;;;;;10.18;8.98;;;538.10;2406.40;;;;;;5013000;28;20036;-85
2022/06/27 01:15:45;;;;;;;11.02;8.18;;;538.20;2406.40;;;;;;5012592;28;20036;-85
2022/06/27 01:18:12;;;;;;;11.60;7.30;;;538.40;2406.40;;;;;;5012307;28;20037;-85
2022/06/27 01:20:40;;;;;;;11.10;8.15;;;538.20;2406.40;;;;;;5012874;28;20037;-85
2022/06/27 01:23:06;;;;;;;13.48;8.35;;;538.10;2406.40;;;;;;5013584;28;20041;-86
2022/06/27 01:25:35;;;;;;;12.88;7.72;;;538.10;2406.40;;;;;;5017507;28;20032;-86
2022/06/27 01:28:03;;;;;;;13.15;8.55;;;538.00;2406.40;;;;;;5036725;28;20033;-84
2022/06/27 01:30:29;;;;;;;14.02;8.70;;;538.00;2406.40;;;;;;5034623;28;20041;-84
2022/06/27 01:32:55;;;;;;;12.52;7.85;;;538.00;2406.40;;;;;;5020088;28;20136;-85
2022/06/27 01:35:21;;;;;;;8.88;7.10;;;538.00;2406.40;;;;;;5019917;28;20056;-84
2022/06/27 01:37:47;;;;;;;9.88;7.70;;;538.10;2406.40;;;;;;5018724;28;20030;-85
2022/06/27 01:40:14;;;;;;;12.45;9.70;;;538.00;2406.40;;;;;;5016172;28;20385;-84
2022/06/27 01:42:41;;;;;;;8.63;7.57;;;537.80;2406.40;;;;;;5016271;28;20033;-86
2022/06/27 01:45:08;;;;;;;12.95;7.72;;;537.90;2406.40;;;;;;5016008;28;20030;-85
2022/06/27 01:47:33;;;;;;;15.55;8.02;;;537.90;2406.40;;;;;;5015759;28;20049;-85
2022/06/27 01:49:59;;;;;;;12.45;7.95;;;537.80;2406.40;;;;;;5016166;28;20026;-86
2022/06/27 01:52:28;;;;;;;10.60;8.25;;;537.80;2406.40;;;;;;5016857;28;20564;-84
2022/06/27 01:54:55;;;;;;;13.15;9.00;;;537.80;2406.40;;;;;;5016235;28;20464;-85
2022/06/27 01:57:22;;;;;;;11.07;7.65;;;537.80;2406.40;;;;;;5015619;28;20032;-84
2022/06/27 01:59:50;;;;;;;17.38;9.20;;;537.80;2406.40;;;;;;5015863;28;20040;-86
2022/06/27 02:02:16;;;;;;;11.32;7.75;;;537.70;2406.40;;;;;;5016303;28;20026;-84
2022/06/27 02:04:42;;;;;;;11.50;7.45;;;537.70;2406.40;;;;;;5016225;28;20483;-84
2022/06/27 02:07:08;;;;;;;11.07;7.45;;;537.70;2406.40;;;;;;5018069;28;20378;-84
2022/06/27 02:09:34;;;;;;;11.18;7.28;;;537.80;2406.40;;;;;;5015918;28;20068;-84
2022/06/27 02:12:18;;;;;;;9.13;8.10;;;537.60;2406.40;;;;;;5015632;28;20368;-85
2022/06/27 02:14:48;;;;;;;9.35;7.82;;;512.90;2380.80;;;;;;5016953;28;20525;-83
2022/06/27 02:17:14;;;;;;;11.98;8.10;;;512.90;2380.80;;;;;;5015997;28;20030;-83
2022/06/27 02:19:41;;;;;;;11.18;8.10;;;537.60;2406.40;;;;;;5016132;28;20038;-85
2022/06/27 02:22:08;;;;;;;12.15;8.15;;;537.70;2406.40;;;;;;5015906;28;20029;-83
2022/06/27 02:24:34;;;;;;;11.65;8.50;;;537.70;2406.40;;;;;;5015661;28;20120;-87
2022/06/27 02:27:01;;;;;;;12.75;8.70;;;537.70;2406.40;;;;;;5015582;28;20108;-84
2022/06/27 02:29:27;;;;;;;14.38;8.60;;;537.70;2406.40;;;;;;5015282;28;20037;-84
2022/06/27 02:31:53;;;;;;;9.05;8.02;;;512.90;2380.80;;;;;;5015395;28;20025;-84
2022/06/27 02:34:19;;;;;;;12.85;8.65;;;537.70;2406.40;;;;;;5014518;28;20066;-84
2022/06/27 02:36:49;;;;;;;10.27;7.82;;;512.90;2380.80;;;;;;5014691;28;20052;-85
2022/06/27 02:39:24;;;;;;;9.70;8.13;;;512.90;2380.80;;;;;;5015309;28;20466;-84
2022/06/27 02:41:55;;;;;;;11.25;8.88;;;512.50;2380.80;;;;;;5015158;28;20061;-85
2022/06/27 02:44:22;;;;;;;14.67;9.20;;;512.80;2380.80;;;;;;5014978;28;20041;-83
2022/06/27 02:46:50;;;;;;;12.60;8.90;;;512.70;2380.80;;;;;;5015888;28;20025;-85
2022/06/27 02:49:16;;;;;;;12.82;8.52;;;512.70;2380.80;;;;;;5018403;28;20030;-84
2022/06/27 02:51:49;;;;;;;10.30;7.60;;;512.80;2380.80;;;;;;5018520;28;20033;-85
2022/06/27 02:54:19;;;;;;;10.90;9.27;;;512.90;2380.80;;;;;;5018291;28;20103;-83
2022/06/27 02:56:51;;;;;;;10.77;8.73;;;512.80;2380.80;;;;;;5018252;28;20090;-85
2022/06/27 02:59:18;;;;;;;13.10;8.30;;;512.90;2380.80;;;;;;5018199;28;20025;-83
2022/06/27 03:01:47;;;;;;;14.63;9.73;;;512.90;2380.80;;;;;;5018197;28;20040;-84
2022/06/27 03:04:12;;;;;;;19.33;9.82;;;512.80;2380.80;;;;;;5018198;28;20033;-84
2022/06/27 03:06:38;;;;;;;23.63;10.48;;;512.80;2380.80;;;;;;5018005;28;20029;-84
2022/06/27 03:09:04;;;;;;;14.50;9.75;;;512.70;2380.80;;;;;;5017708;28;20430;-85
2022/06/27 03:11:30;;;;;;;14.68;10.23;;;512.80;2380.80;;;;;;5017676;28;20036;-83
2022/06/27 03:13:56;;;;;;;14.52;8.85;;;;;;;;;;5017638;28;20064;-85
2022/06/27 03:16:23;;;;;;;14.02;9.82;;;512.50;2380.80;;;;;;5017724;28;20538;-84
2022/06/27 03:18:50;;;;;;;17.23;9.40;;;487.10;2380.80;;;;;;5017741;28;20031;-84
2022/06/27 03:21:17;;;;;;;14.50;9.48;;;512.60;2380.80;;;;;;5017439;28;20029;-82
2022/06/27 03:23:52;;;;;;;12.70;9.63;;;512.70;2380.80;;;;;;5017663;28;20056;-85
2022/06/27 03:26:18;;;;;;;13.80;8.93;;;512.50;2380.80;;;;;;5017242;28;20025;-84
2022/06/27 03:28:45;;;;;;;12.52;9.52;;;512.70;2380.80;;;;;;5017253;28;20075;-84
2022/06/27 03:31:11;;;;;;;10.85;9.82;;;512.40;2380.80;;;;;;5017436;28;20048;-85
2022/06/27 03:33:37;;;;;;;11.15;9.63;;;512.80;2380.80;;;;;;5017342;28;20060;-85
2022/06/27 03:36:04;;;;;;;11.23;9.02;;;512.70;2380.80;;;;;;5017291;28;20025;-83
2022/06/27 03:38:30;;;;;;;11.77;9.77;;;512.80;2380.80;;;;;;5017434;28;20033;-85
2022/06/27 03:40:57;;;;;;;16.08;8.77;;;512.90;2380.80;;;;;;5017939;28;20065;-87
2022/06/27 03:43:23;;;;;;;13.73;8.85;;;512.80;2380.80;;;;;;5017879;28;20121;-88
2022/06/27 03:45:49;;;;;;;12.48;8.50;;;512.80;2380.80;;;;;;5017733;28;20072;-88
2022/06/27 03:50:00;;;;;;;13.50;9.93;;;512.50;2380.80;;;;;;5017352;28;20049;-86
2022/06/27 03:51:01;;;;;;;12.60;9.23;;;512.80;2380.80;;;;;;5034713;28;20037;-87
2022/06/27 03:53:27;;;;;;;14.35;8.75;;;512.50;2380.80;;;;;;5017651;28;20029;-87
2022/06/27 03:55:53;;;;;;;18.52;10.05;;;512.60;2380.80;;;;;;5017458;28;20025;-86
2022/06/27 03:58:19;;;;;;;11.82;9.50;;;512.50;2380.80;;;;;;5017254;28;20060;-87
2022/06/27 04:00:45;;;;;;;15.80;8.82;;;512.60;2380.80;;;;;;5017770;28;20026;-87
2022/06/27 04:03:11;;;;;;;15.77;8.82;;;512.70;2380.80;;;;;;5017310;28;20029;-89
2022/06/27 04:05:37;;;;;;;14.75;9.85;;;512.80;2380.80;;;;;;5017638;28;20025;-86
2022/06/27 04:08:03;;;;;;;13.65;10.27;;;512.90;2380.80;;;;;;5017660;28;20067;-88
2022/06/27 04:10:29;;;;;;;13.63;9.20;;;512.80;2380.80;;;;;;5017589;28;20049;-88
2022/06/27 04:12:55;;;;;;;16.05;8.90;;;512.80;2380.80;;;;;;5017671;28;20033;-87
2022/06/27 04:15:21;;;;;;;12.48;9.45;;;512.80;2380.80;;;;;;5017410;28;20049;-89
2022/06/27 04:17:47;;;;;;;13.55;9.25;;;512.90;2380.80;;;;;;5018112;28;20034;-89
2022/06/27 04:20:12;;;;;;;13.70;9.32;;;512.90;2380.80;;;;;;5017976;28;20482;-89
2022/06/27 04:22:38;;;;;;;14.43;8.88;;;512.90;2380.80;;;;;;5018365;28;20033;-88
2022/06/27 04:25:05;;;;;;;11.85;8.93;;;537.60;2406.40;;;;;;5018528;28;20120;-88
2022/06/27 04:27:31;;;;;;;12.32;9.20;;;537.70;2406.40;;;;;;5018368;28;20025;-88
2022/06/27 04:29:57;;;;;;;14.02;7.80;;;537.70;2406.40;;;;;;5017993;28;20030;-87
2022/06/27 04:32:25;;;;;;;11.98;8.18;;;537.70;2406.40;;;;;;5019012;28;20030;-88
2022/06/27 04:34:51;;;;;;;24.73;9.20;;;537.70;2406.40;;;;;;5018357;28;20025;-88
2022/06/27 04:37:18;;;;;;;16.30;8.18;;;538.50;2406.40;;;;;;5019050;28;20036;-87
2022/06/27 04:39:45;;;;;;;17.98;9.65;;;537.70;2406.40;;;;;;5017603;28;20029;-88
2022/06/27 04:42:12;;;;;;;15.77;9.20;;;537.60;2406.40;;;;;;5017654;28;20029;-89
2022/06/27 04:44:43;;;;;;;15.10;8.52;;;537.80;2406.40;;;;;;5017656;28;20033;-88
2022/06/27 04:47:12;;;;;;;17.83;9.63;;;537.80;2406.40;;;;;;5029651;28;20057;-84
2022/06/27 04:49:38;;;;;;;17.98;9.88;;;537.70;2406.40;;;;;;5041295;28;20014;-86
2022/06/27 04:52:08;;;;;;;18.83;9.48;;;512.90;2380.80;;;;;;5041004;28;20013;-86
2022/06/27 04:54:36;;;;;;;13.93;9.82;;;537.60;2406.40;;;;;;5040952;28;20029;-86
2022/06/27 04:57:03;;;;;;;17.02;9.55;;;512.90;2380.80;;;;;;5041318;28;20065;-85
2022/06/27 04:59:29;;;;;;;15.80;9.20;;;537.70;2406.40;;;;;;5043314;28;20010;-84
2022/06/27 05:01:55;;;;;;;12.35;8.68;;;537.90;2406.40;;;;;;5022557;28;20025;-88
2022/06/27 05:04:22;;;;;;;15.55;8.98;;;537.90;2406.40;;;;;;5021847;28;20053;-87
2022/06/27 05:06:49;;;;;;;18.10;7.90;;;538.00;2406.40;;;;;;5022748;28;20018;-87
2022/06/27 05:09:16;;;;;;;14.40;8.90;;;538.00;2406.40;;;;;;5022717;28;20021;-85
2022/06/27 05:11:50;;;;;;;9.77;8.23;;;538.10;2406.40;;;;;;5039866;28;20025;-87
2022/06/27 05:14:16;;;;;;;16.45;9.10;;;538.00;2406.40;;;;;;5022705;28;20033;-87
2022/06/27 05:16:42;;;;;;;12.05;8.65;;;538.10;2406.40;;;;;;5021460;28;20032;-86
2022/06/27 05:19:09;;;;;;;11.77;8.55;;;538.30;2406.40;;;;;;5020976;28;20026;-87
2022/06/27 05:21:35;;;;;;;15.90;8.50;;;538.30;2406.40;;;;;;5020777;28;20021;-87
2022/06/27 05:24:02;;;;;;;14.82;8.88;;;538.50;2406.40;;;;;;5020379;28;20030;-87
2022/06/27 05:26:28;;;;;;;22.35;8.80;;;538.40;2406.40;;;;;;5021127;28;20021;-88
2022/06/27 05:28:55;;;;;;;10.85;8.70;;;538.50;2406.40;;;;;;5021107;28;20021;-87
2022/06/27 05:31:21;;;;;;;13.05;8.30;;;538.40;2406.40;;;;;;5024078;28;20021;-86
2022/06/27 05:33:47;;;;;;;12.18;8.38;;;538.40;2406.40;;;;;;5029720;28;20028;-86
2022/06/27 05:36:13;;;;;;;19.73;9.77;;;563.20;2432.00;;;;;;5028961;28;20025;-86
2022/06/27 05:38:39;;;;;;;11.77;8.23;;;563.30;2432.00;;;;;;5021202;28;20021;-87
2022/06/27 05:41:06;;;;;;;12.25;8.88;;;563.40;2432.00;;;;;;5019964;28;20060;-87
2022/06/27 05:43:32;;;;;;;9.82;7.65;;;563.60;2432.00;;;;;;5019829;28;20057;-87
2022/06/27 05:45:58;;;;;;;11.02;7.95;;;563.60;2432.00;;;;;;5020219;28;20472;-89
2022/06/27 05:48:24;;;;;;;15.48;8.10;;;563.60;2432.00;;;;;;5037226;28;20049;-87
2022/06/27 05:50:50;;;;;;;13.95;7.45;;;563.60;2432.00;;;;;;5019630;28;20022;-88
2022/06/27 05:53:17;;;;;;;15.75;8.05;;;563.70;2432.00;;;;;;5019924;28;20435;-88
2022/06/27 05:55:46;;;;;;;12.35;8.32;;;563.80;2432.00;;;;;;5019845;28;20052;-87
2022/06/27 05:58:20;;;;;;;11.75;8.15;;;563.80;2432.00;;;;;;5020277;28;20363;-87
2022/06/27 06:00:49;;;;;;;14.70;7.85;;;563.90;2432.00;;;;;;5020060;28;20022;-89
2022/06/27 06:03:15;;;;;;;11.68;7.97;;;564.00;2432.00;;;;;;5019466;28;20441;-84
2022/06/27 06:05:41;;;;;;;14.10;7.95;;;564.10;2432.00;;;;;;5019167;28;20021;-89
2022/06/27 06:08:08;;;;;;;11.55;7.40;;;564.10;2432.00;;;;;;5018746;28;20478;-86
2022/06/27 06:10:34;;;;;;;12.57;7.65;;;564.10;2432.00;;;;;;5019259;28;20384;-87
2022/06/27 06:13:01;;;;;;;9.98;7.05;;;588.90;2432.00;;;;;;5019823;28;20029;-85
2022/06/27 06:15:29;;;;;;;9.75;7.50;;;589.20;2432.00;;;;;;5019550;28;20036;-86
2022/06/27 06:17:56;;;;;;;14.23;7.18;;;589.30;2432.00;;;;;;5018920;28;20379;-86
2022/06/27 06:20:22;;;;;;;10.00;7.47;;;589.60;2432.00;;;;;;5019037;28;20032;-88
2022/06/27 06:22:48;;;;;;;8.80;7.25;;;589.70;2432.00;;;;;;5019341;28;20529;-89
2022/06/27 06:25:14;;;;;;;12.02;7.88;;;614.60;2432.00;;;;;;5032225;28;20082;-87
2022/06/27 06:27:44;;;;;;;9.13;7.18;;;;;;;;;;5043529;28;20009;-88
2022/06/27 06:30:10;;;;;;;12.05;7.07;;;;;;;;;;5028336;28;20080;-88
2022/06/27 06:32:37;;;;;;;10.50;7.53;;;;;;;;;;5024282;28;20026;-88
2022/06/27 06:35:04;;;;;;;11.40;6.80;;;;;;;;;;5025443;28;20029;-87
2022/06/27 06:37:31;;;;;;;10.80;7.15;;;614.70;2432.00;;;;;;5021262;28;20036;-87
2022/06/27 06:39:58;;;;;;;9.15;6.40;;;614.80;2432.00;;;;;;5018581;28;20033;-87
2022/06/27 06:42:24;;;;;;;10.80;6.93;;;;;;;;;;5018578;28;20057;-86
2022/06/27 06:44:52;;;;;;;12.45;6.97;;;;;;;;;;5018186;28;20084;-87
2022/06/27 06:47:19;;;;;;;13.45;6.35;;;615.20;2432.00;;;;;;5018106;28;20054;-87
2022/06/27 06:49:46;;;;;;;10.40;6.75;;;615.20;2432.00;;;;;;5018417;28;20052;-89
2022/06/27 06:52:13;;;;;;;11.70;6.25;;;615.30;2432.00;;;;;;5018418;28;20030;-87
2022/06/27 06:54:41;;;;;;;10.60;6.32;;;615.30;2432.00;;;;;;5018512;28;20029;-89
2022/06/27 06:57:10;;;;;;;11.20;6.68;;;640.00;2432.00;;;;;;5018602;28;20021;-91
2022/06/27 06:59:36;;;;;;;12.88;6.75;;;640.10;2432.00;;;;;;5018294;28;20093;-87
2022/06/27 07:02:03;;;;;;;8.63;6.30;;;615.00;2432.00;;;;;;5018539;28;20033;-88
2022/06/27 07:04:29;;;;;;;11.18;6.30;;;640.40;2432.00;;;;;;5018239;28;20021;-87
2022/06/27 07:06:56;;;;;;;13.73;7.32;;;640.40;2432.00;;;;;;5018404;28;20025;-86
2022/06/27 07:09:22;;;;;;;14.98;6.57;;;640.50;2432.00;;;;;;5018419;28;20383;-84
2022/06/27 07:11:47;;;;;;;10.63;6.30;;;640.70;2432.00;;;;;;5017518;28;20026;-84
2022/06/27 07:14:15;;;;;;;10.52;6.22;;;640.90;2432.00;;;;;;5017300;28;20491;-84
2022/06/27 07:16:42;;;;;;;16.27;6.38;;;665.70;2432.00;;;;;;5017475;28;20096;-84
2022/06/27 07:19:08;;;;;;;10.50;6.82;;;665.70;2432.00;;;;;;5035099;28;20028;-84
2022/06/27 07:21:35;;;;;;;10.32;6.13;;;665.90;2432.00;;;;;;5016700;28;20029;-84
2022/06/27 07:24:02;;;;;;;11.20;5.85;;;665.90;2432.00;;;;;;5017680;28;20072;-85
2022/06/27 07:26:31;;;;;;;14.50;6.68;;;665.70;2432.00;;;;;;5017089;28;20029;-83
2022/06/27 07:28:57;;;;;;;11.30;6.10;;;666.00;2432.00;;;;;;5017739;28;20022;-85
2022/06/27 07:31:23;;;;;;;9.85;6.65;;;666.00;2432.00;;;;;;5034622;28;20026;-83
2022/06/27 07:33:54;;;;;;;11.82;6.45;;;665.90;2432.00;;;;;;5016877;28;20116;-82
2022/06/27 07:36:25;;;;;;;14.88;6.95;;;665.80;2432.00;;;;;;5017428;28;20360;-84
2022/06/27 07:38:52;;;;;;;16.27;7.03;;;665.70;2432.00;;;;;;5035126;28;20463;-84
2022/06/27 07:41:22;;;;;;;16.58;7.88;;;666.00;2432.00;;;;;;5017060;28;20063;-84
2022/06/27 07:43:55;;;;;;;13.98;7.97;;;666.20;2432.00;;;;;;5017106;28;20126;-82
2022/06/27 07:46:21;;;;;;;9.07;6.10;;;;;;;;;;5016873;28;20026;-86
2022/06/27 07:48:49;;;;;;;7.55;5.60;;;691.50;2432.00;;;;;;5016563;28;20433;-87
2022/06/27 07:51:19;;;;;;;9.90;5.13;;;691.40;2432.00;;;;;;5005211;28;20112;-86
2022/06/27 07:53:48;;;;;;;14.57;7.53;;;;;;;;;;4997084;28;20033;-84
2022/06/27 07:56:15;;;;;;;12.93;7.03;;;;;;;;;;5014368;28;20034;-83
2022/06/27 07:58:42;;;;;;;7.97;4.93;;;;;;;;;;4997072;28;20025;-83
2022/06/27 08:01:16;;;;;;;6.95;5.50;;;;;;;;;;4996955;28;20026;-85
2022/06/27 08:03:44;;;;;;;10.48;4.57;;;;;;;;;;4996966;28;20038;-84
2022/06/27 08:06:18;;;;;;;11.38;5.80;;;;;;;;;;4997035;28;20049;-83
2022/06/27 08:08:52;;;;;;;7.45;5.18;;;;;;;;;;4996829;28;20029;-85
2022/06/27 08:11:28;;;;;;;10.07;4.88;;;;;;;;;;4996313;28;20025;-84
2022/06/27 08:13:56;;;;;;;9.32;5.47;;;;;;;;;;4997111;28;20030;-84
2022/06/27 08:16:24;;;;;;;10.57;5.43;;;;;;;;;;4996616;28;20491;-82
2022/06/27 08:18:51;;;;;;;9.25;5.68;;;;;;;;;;4996792;28;20017;-83
2022/06/27 08:21:19;;;;;;;8.63;4.88;;;;;;;;;;4996968;28;20539;-84
2022/06/27 08:23:46;;;;;;;9.23;5.05;;;;;;;;;;4996569;28;20034;-82
2022/06/27 08:26:13;;;;;;;6.70;4.50;;;;;;;;;;4997011;28;20057;-84
2022/06/27 08:28:40;;;;;;;6.47;4.50;;;717.50;2432.00;;;;;;4996733;28;20503;-84
2022/06/27 08:31:11;;;;;;;8.90;4.95;;;717.50;2432.00;;;;;;4996531;28;20067;-85
2022/06/27 08:33:39;;;;;;;6.10;4.55;;;717.70;2432.00;;;;;;4995901;28;20030;-82
2022/06/27 08:36:06;;;;;;;8.38;4.85;;;742.60;2432.00;;;;;;5013821;28;20113;-83
2022/06/27 08:38:39;;;;;;;11.70;5.50;;;742.80;2432.00;;;;;;5013567;28;20034;-85
2022/06/27 08:41:06;;;;;;;12.35;5.60;;;743.00;2432.00;;;;;;5013920;28;20033;-81
2022/06/27 08:43:33;;;;;;;7.40;4.10;;;743.00;2432.00;;;;;;4996112;28;20154;-83
2022/06/27 08:45:59;;;;;;;10.50;4.50;;;743.00;2432.00;;;;;;5013951;28;20486;-84
2022/06/27 08:48:28;;;;;;;4.90;3.70;;;743.20;2432.00;;;;;;5012212;28;20099;-82
2022/06/27 08:50:57;;;;;;;6.97;4.15;;;742.90;2432.00;;;;;;5012494;28;20076;-84
2022/06/27 08:53:25;;;;;;;6.15;4.30;;;742.80;2432.00;;;;;;5012708;28;20121;-84
2022/06/27 08:55:51;;;;;;;9.02;4.47;;;742.90;2432.00;;;;;;4996313;28;20064;-82
2022/06/27 08:58:17;;;;;;;9.55;4.95;;;742.60;2432.00;;;;;;5014924;28;20029;-83
2022/06/27 09:00:46;;;;;;;5.82;3.88;;;742.70;2432.00;;;;;;5008208;28;20026;-84
2022/06/27 09:03:17;;;;;;;8.10;4.93;;;742.80;2432.00;;;;;;5006128;28;20041;-83
2022/06/27 09:05:45;;;;;;;6.70;4.40;;;743.20;2432.00;;;;;;5003958;28;20475;-84
2022/06/27 09:08:12;;;;;;;12.00;6.43;;;743.30;2432.00;;;;;;4996108;28;20081;-85
2022/06/27 09:10:40;;;;;;;8.45;4.55;;;768.40;2432.00;;;;;;4999103;28;20034;-82
2022/06/27 09:13:11;;;;;;;8.57;4.18;;;768.40;2432.00;;;;;;5010134;28;20379;-83
2022/06/27 09:15:51;;;;;;;7.18;3.90;;;768.40;2432.00;;;;;;5015719;28;20053;-83
2022/06/27 09:18:20;;;;;;;8.70;4.68;;;768.50;2355.20;;;;;;5015468;28;20099;-81
2022/06/27 09:21:04;;;;;;;11.98;4.25;;;768.60;2355.20;;;;;;5015491;28;20048;-82
2022/06/27 09:23:47;;;;;;;11.77;4.45;;;768.10;2355.20;;;;;;5011947;28;20069;-84
2022/06/27 09:26:16;;;;;;;14.02;3.95;;;768.10;2355.20;;;;;;4995916;28;20411;-82
2022/06/27 09:28:50;;;;;;;11.77;4.40;;;768.30;2355.20;;;;;;4995821;28;20033;-83
2022/06/27 09:31:28;;;;;;;5.95;3.75;;;768.70;2355.20;;;;;;4996177;28;20033;-83
2022/06/27 09:34:20;;;;;;;8.13;3.65;;;768.90;2329.60;;;;;;4995844;28;20101;-82
2022/06/27 09:36:50;;;;;;;7.18;3.70;;;793.60;2329.60;;;;;;4995014;28;20069;-80
2022/06/27 09:39:24;;;;;;;7.32;3.72;;;793.80;2355.20;;;;;;5012744;28;20508;-82
2022/06/27 09:42:05;;;;;;;7.60;3.78;;;768.40;2304.00;;;;;;4996025;28;20090;-84
2022/06/27 09:44:38;;;;;;;4.80;3.33;;;768.90;2304.00;;;;;;4996984;28;20038;-85
2022/06/27 09:47:16;;;;;;;7.07;4.00;;;793.70;2278.40;;;;;;4995308;28;20082;-83
2022/06/27 09:49:45;;;;;;;7.85;4.15;;;768.60;2252.80;;;;;;4996075;28;20026;-82
2022/06/27 09:52:13;;;;;;;9.18;5.38;;;768.40;2329.60;;;;;;4996053;28;20459;-83
2022/06/27 09:54:41;;;;;;;6.03;3.03;;;768.40;2304.00;;;;;;4995628;28;20034;-84
2022/06/27 09:57:08;;;;;;;4.88;2.95;;;768.30;2304.00;;;;;;4997125;28;20085;-83
2022/06/27 09:59:35;;;;;;;5.97;3.03;;;768.50;2252.80;;;;;;4995621;28;20029;-84
2022/06/27 10:02:01;;;;;;;6.97;3.15;;;768.60;2201.60;;;;;;4995773;28;20027;-83
2022/06/27 10:04:29;;;;;;;5.18;3.10;;;768.70;2201.60;;;;;;4995993;28;20464;-84
2022/06/27 10:06:58;;;;;;;6.90;3.20;;;793.70;2201.60;;;;;;4996477;28;20038;-83
2022/06/27 10:09:25;;;;;;;5.32;3.25;;;794.00;2201.60;;;;;;5012048;28;20062;-82
2022/06/27 10:12:29;;;;;;;4.70;3.03;;;794.10;2176.00;;;;;;4995785;28;20026;-84
2022/06/27 10:15:10;;;;;;;7.95;3.22;;;794.20;2124.80;;;;;;4995474;28;20061;-85
2022/06/27 10:17:49;;;;;;;4.73;2.93;;;819.30;2150.40;;;;;;4995405;28;20035;-83
2022/06/27 10:20:34;;;;;;;5.40;2.90;;;819.20;2176.00;;;;;;4996915;28;20478;-84
2022/06/27 10:23:09;;;;;;;5.95;3.13;;;819.40;2073.60;;;;;;4995454;28;20030;-84
2022/06/27 10:25:36;;;;;;;6.50;3.10;;;819.70;2124.80;;;;;;4995628;28;20104;-82
2022/06/27 10:28:09;;;;;;;7.85;3.17;;;819.80;2073.60;;;;;;4995334;28;20037;-82
2022/06/27 10:30:46;;;;;;;6.43;3.10;;;819.90;2073.60;;;;;;4996480;28;20028;-83
2022/06/27 10:33:26;;;;;;;7.25;2.90;;;844.80;2073.60;;;;;;4995357;28;20038;-81
2022/06/27 10:35:55;;;;;;;3.95;2.65;;;845.10;2022.40;;;;;;4994891;28;20088;-80
2022/06/27 10:38:33;;;;;;;4.70;2.60;;;844.90;1996.80;;;;;;4995382;28;20026;-79
2022/06/27 10:41:01;;;;;;;5.97;2.70;;;845.20;2022.40;;;;;;4995154;28;20080;-80
2022/06/27 10:43:50;;;;;;;3.25;2.38;;;845.40;2022.40;;;;;;4994753;28;20468;-83
2022/06/27 10:46:16;;;;;;;3.47;2.20;;;845.30;1971.20;;;;;;4995155;28;20023;-80
2022/06/27 10:48:53;;;;;;;8.05;2.50;;;844.90;1945.60;;;;;;4994726;28;20554;-82
2022/06/27 10:51:19;;;;;;;4.80;2.63;;;844.90;1945.60;;;;;;4994930;28;20030;-83
2022/06/27 10:53:50;;;;;;;5.57;2.88;;;844.90;1971.20;;;;;;4994947;28;20061;-84
2022/06/27 10:56:31;;;;;;;6.82;2.90;;;845.20;1996.80;;;;;;4993816;28;20062;-84
2022/06/27 10:58:57;;;;;;;6.38;2.95;;;845.70;1996.80;;;;;;4994784;28;20031;-84
2022/06/27 11:01:23;;;;;;;9.23;2.97;;;;;;;;;;4996103;28;20112;-82
2022/06/27 11:03:50;;;;;;;5.00;2.25;;;;;;;;;;4994599;28;20121;-82
2022/06/27 11:06:17;;;;;;;6.18;2.60;;;870.50;1894.40;;;;;;4994868;28;20024;-81
2022/06/27 11:08:46;;;;;;;7.25;2.65;;;870.50;1894.40;;;;;;4995925;28;20073;-81
2022/06/27 11:11:16;;;;;;;5.22;2.72;;;870.50;1920.00;;;;;;4994571;28;20085;-82
2022/06/27 11:13:48;;;;;;;6.50;2.40;;;870.60;1894.40;;;;;;4994722;28;20499;-85
2022/06/27 11:16:22;;;;;;;3.95;2.28;;;870.60;1894.40;;;;;;5011218;28;20022;-82
2022/06/27 11:18:50;;;;;;;5.85;2.05;;;870.50;1894.40;;;;;;4994799;28;20040;-83
2022/06/27 11:21:19;;;;;;;4.38;2.25;;;845.70;1843.20;;;;;;4997164;28;20033;-82
2022/06/27 11:23:57;;;;;;;5.25;2.58;;;845.70;1868.80;;;;;;5013470;28;20019;-81
2022/06/27 11:26:30;;;;;;;3.08;2.08;;;845.60;1817.60;;;;;;5011805;28;20066;-82
2022/06/27 11:31:57;;;;;;;6.10;2.63;;;870.60;1868.80;;;;;;4995492;28;20486;-84
2022/06/27 11:34:24;;;;;;;4.57;2.00;;;870.80;1843.20;;;;;;4994111;28;20037;-82
2022/06/27 11:36:54;;;;;;;3.47;1.83;;;870.40;1740.80;;;;;;4993892;28;20030;-82
2022/06/27 11:39:28;;;;;;;5.15;2.20;;;870.90;1740.80;;;;;;4993804;28;20464;-83
2022/06/27 11:41:59;;;;;;;6.03;1.98;;;871.00;1740.80;;;;;;4994235;28;20514;-83
2022/06/27 11:44:26;;;;;;;4.88;2.10;;;871.30;1740.80;;;;;;4995076;28;20117;-81
2022/06/27 11:47:10;;;;;;;4.93;2.10;;;871.30;1740.80;;;;;;4995640;28;20034;-84
2022/06/27 11:49:40;;;;;;;5.10;2.15;;;871.30;1689.60;;;;;;4997144;28;20041;-83
2022/06/27 11:52:15;;;;;;;3.78;2.20;;;871.20;1689.60;;;;;;4997177;28;20026;-85
2022/06/27 11:54:43;;;;;;;3.38;1.83;;;871.30;1715.20;;;;;;4997408;28;20030;-81
2022/06/27 11:57:23;;;;;;;4.82;1.83;;;;;;;;;;4997063;28;20034;-83
2022/06/27 11:59:51;;;;;;;5.60;2.08;;;896.30;1740.80;;;;;;5012994;28;20112;-81
2022/06/27 12:02:29;;;;;;;4.15;2.13;;;871.10;1740.80;;;;;;5006478;28;20029;-83
2022/06/27 12:05:08;;;;;;;4.95;2.45;;;871.20;1792.00;;;;;;5002285;28;20128;-81
2022/06/27 12:07:56;;;;;;;5.03;2.70;;;896.20;1715.20;;;;;;5020917;28;20030;-82
2022/06/27 12:11:16;;;;;;;5.20;3.45;;;896.60;1715.20;;;;;;5013200;28;20033;-83
2022/06/27 12:13:32;;;;;;;10.95;4.85;;;896.80;1740.80;;;;;;5013385;28;20034;-81
2022/06/27 12:15:59;;;;;;;8.13;4.28;;;;;;;;;;4996483;28;20101;-83
2022/06/27 12:18:36;;;;;;;5.72;2.70;;;921.80;1664.00;;;;;;4996889;28;20026;-85
2022/06/27 12:21:02;;;;;;;7.15;4.93;;;921.70;1638.40;;;;;;5000589;28;20041;-83
2022/06/27 12:23:28;;;;;;;5.78;2.65;;;921.90;1664.00;;;;;;5004251;28;20034;-83
2022/06/27 12:25:54;;;;;;;6.60;4.07;;;922.00;1664.00;;;;;;5016776;28;20026;-83
2022/06/27 12:28:20;;;;;;;4.78;2.78;;;922.10;1664.00;;;;;;5012699;28;20026;-86
2022/06/27 12:30:46;;;;;;;7.10;2.30;;;922.10;1638.40;;;;;;5013172;28;20030;-85
2022/06/27 12:33:12;;;;;;;4.00;1.90;;;922.10;1612.80;;;;;;5012805;28;20045;-82